createdAt,value
2023-03-31T00:00:14.956Z,52.85
2023-03-31T00:02:45.171Z,52.90
2023-03-31T00:05:29.690Z,52.83
2023-03-31T00:08:01.954Z,52.71
2023-03-31T00:10:37.359Z,52.81
2023-03-31T00:13:04.534Z,53.00
2023-03-31T00:15:35.882Z,52.91
2023-03-31T00:18:03.239Z,52.56
2023-03-31T00:20:34.369Z,52.81
2023-03-31T00:23:06.364Z,52.68
2023-03-31T00:25:39.559Z,53.12
2023-03-31T00:28:18.442Z,52.32
2023-03-31T00:30:49.681Z,52.83
2023-03-31T00:33:20.356Z,52.62
2023-03-31T00:35:53.493Z,52.74
2023-03-31T00:38:32.402Z,52.55
2023-03-31T00:41:01.578Z,52.67
2023-03-31T00:43:29.648Z,52.71
2023-03-31T00:46:27.520Z,52.72
2023-03-31T00:48:57.858Z,52.59
2023-03-31T00:51:31.576Z,52.77
2023-03-31T00:54:03.091Z,52.62
2023-03-31T00:56:39.691Z,52.83
2023-03-31T00:59:11.704Z,52.67
2023-03-31T01:01:43.245Z,52.57
2023-03-31T01:04:15.622Z,52.67
2023-03-31T01:06:55.886Z,52.80
2023-03-31T01:09:25.085Z,52.48
2023-03-31T01:11:57.115Z,52.71
2023-03-31T01:14:27.027Z,52.68
2023-03-31T01:17:02.506Z,52.33
2023-03-31T01:20:01.787Z,52.48
2023-03-31T01:23:08.175Z,52.60
2023-03-31T01:26:24.428Z,52.47
2023-03-31T01:29:13.170Z,52.37
2023-03-31T01:32:14.013Z,52.38
2023-03-31T01:35:13.238Z,52.49
2023-03-31T01:38:04.310Z,52.71
2023-03-31T01:40:50.705Z,52.63
2023-03-31T01:43:25.621Z,52.67
2023-03-31T01:46:04.407Z,52.52
2023-03-31T01:49:11.224Z,52.57
2023-03-31T01:52:02.397Z,52.45
2023-03-31T01:54:50.829Z,52.56
2023-03-31T01:57:18.955Z,52.58
2023-03-31T02:02:55.970Z,52.78
2023-03-31T02:05:34.802Z,52.52
2023-03-31T02:08:11.219Z,52.07
2023-03-31T02:10:44.815Z,52.15
2023-03-31T02:13:12.205Z,52.14
2023-03-31T02:15:41.909Z,52.26
2023-03-31T02:18:22.270Z,52.64
2023-03-31T02:20:51.727Z,52.52
2023-03-31T02:23:25.145Z,51.71
2023-03-31T02:25:53.358Z,52.13
2023-03-31T02:28:25.067Z,52.18
2023-03-31T02:31:13.738Z,52.07
2023-03-31T02:33:40.446Z,52.34
2023-03-31T02:36:07.873Z,52.38
2023-03-31T02:38:37.838Z,52.31
2023-03-31T02:41:04.502Z,52.14
2023-03-31T02:43:31.139Z,52.01
2023-03-31T02:45:57.846Z,52.22
2023-03-31T02:48:33.327Z,52.19
2023-03-31T02:51:10.288Z,52.30
2023-03-31T02:54:06.354Z,52.37
2023-03-31T02:56:57.910Z,52.26
2023-03-31T02:59:30.788Z,52.22
2023-03-31T03:02:00.520Z,52.03
2023-03-31T03:04:50.485Z,52.16
2023-03-31T03:07:31.263Z,52.41
2023-03-31T03:10:12.791Z,51.87
2023-03-31T03:12:59.605Z,52.21
2023-03-31T03:15:41.471Z,52.02
2023-03-31T03:18:08.219Z,52.15
2023-03-31T03:20:35.952Z,52.19
2023-03-31T03:23:02.797Z,52.20
2023-03-31T03:25:30.448Z,52.19
2023-03-31T03:27:57.168Z,52.07
2023-03-31T03:30:23.922Z,52.04
2023-03-31T03:32:50.778Z,51.97
2023-03-31T03:35:17.616Z,51.84
2023-03-31T03:37:44.278Z,52.13
2023-03-31T03:40:11.231Z,51.97
2023-03-31T03:42:38.609Z,52.03
2023-03-31T03:45:05.662Z,52.13
2023-03-31T03:47:32.512Z,52.26
2023-03-31T03:50:02.984Z,52.00
2023-03-31T03:52:29.709Z,51.93
2023-03-31T03:54:56.322Z,51.99
2023-03-31T03:57:23.020Z,52.18
2023-03-31T03:59:49.690Z,52.07
2023-03-31T04:02:16.734Z,52.05
2023-03-31T04:04:43.723Z,52.01
2023-03-31T04:07:13.079Z,51.73
2023-03-31T04:09:39.725Z,52.16
2023-03-31T04:12:06.447Z,51.90
2023-03-31T04:14:33.150Z,51.96
2023-03-31T04:16:59.813Z,51.77
2023-03-31T04:19:27.677Z,51.80
2023-03-31T04:22:03.031Z,51.69
2023-03-31T04:24:33.164Z,51.80
2023-03-31T04:27:00.472Z,51.73
2023-03-31T04:29:27.270Z,51.98
2023-03-31T04:31:59.855Z,51.74
2023-03-31T04:34:34.913Z,52.05
2023-03-31T04:37:05.099Z,51.89
2023-03-31T04:39:33.087Z,51.88
2023-03-31T04:42:00.367Z,51.84
2023-03-31T04:44:27.473Z,51.96
2023-03-31T04:46:54.612Z,51.74
2023-03-31T04:49:21.686Z,51.84
2023-03-31T04:51:48.430Z,51.60
2023-03-31T04:54:15.099Z,51.81
2023-03-31T04:56:41.748Z,51.79
2023-03-31T04:59:08.663Z,51.70
2023-03-31T05:01:36.452Z,51.74
2023-03-31T05:04:04.359Z,51.63
2023-03-31T05:06:31.276Z,51.67
2023-03-31T05:09:00.536Z,51.51
2023-03-31T05:11:27.920Z,51.65
2023-03-31T05:13:55.382Z,51.53
2023-03-31T05:16:22.211Z,51.59
2023-03-31T05:21:34.650Z,51.75
2023-03-31T05:24:06.138Z,51.60
2023-03-31T05:26:32.856Z,51.66
2023-03-31T05:28:59.627Z,51.41
2023-03-31T05:31:27.400Z,51.66
2023-03-31T05:33:54.145Z,51.81
2023-03-31T05:36:23.802Z,51.39
2023-03-31T05:38:52.793Z,51.15
2023-03-31T05:41:22.832Z,51.14
2023-03-31T05:43:49.584Z,51.13
2023-03-31T05:46:18.549Z,51.46
2023-03-31T05:48:45.367Z,50.99
2023-03-31T05:51:12.073Z,51.42
2023-03-31T05:53:38.739Z,51.24
2023-03-31T05:56:06.956Z,51.49
2023-03-31T05:58:35.172Z,51.36
2023-03-31T06:01:09.516Z,51.62
2023-03-31T06:03:38.094Z,51.44
2023-03-31T06:06:15.122Z,51.38
2023-03-31T06:08:44.679Z,51.43
2023-03-31T06:11:12.818Z,51.62
2023-03-31T06:13:39.740Z,51.65
2023-03-31T06:16:06.928Z,51.50
2023-03-31T06:18:34.719Z,51.56
2023-03-31T06:21:01.395Z,51.65
2023-03-31T06:23:28.047Z,51.53
2023-03-31T06:25:54.637Z,51.83
2023-03-31T06:28:21.527Z,51.57
2023-03-31T06:30:48.155Z,51.87
2023-03-31T06:33:14.737Z,51.78
2023-03-31T06:35:41.939Z,51.75
2023-03-31T06:38:08.816Z,51.44
2023-03-31T06:40:35.455Z,51.72
2023-03-31T06:43:02.142Z,51.81
2023-03-31T06:45:28.823Z,51.84
2023-03-31T06:47:55.402Z,51.44
2023-03-31T06:50:22.392Z,51.96
2023-03-31T06:52:52.690Z,51.84
2023-03-31T06:55:19.445Z,52.22
2023-03-31T06:57:46.424Z,52.15
2023-03-31T07:00:13.682Z,52.07
2023-03-31T07:02:40.468Z,51.66
2023-03-31T07:05:07.620Z,51.97
2023-03-31T07:07:35.078Z,51.92
2023-03-31T07:10:01.648Z,52.17
2023-03-31T07:12:28.606Z,52.27
2023-03-31T07:14:55.342Z,52.65
2023-03-31T07:17:21.909Z,52.01
2023-03-31T07:19:48.672Z,52.34
2023-03-31T07:22:15.981Z,52.49
2023-03-31T07:24:42.782Z,52.43
2023-03-31T07:27:09.445Z,52.51
2023-03-31T07:29:36.072Z,52.91
2023-03-31T07:32:02.725Z,52.70
2023-03-31T07:34:29.457Z,52.89
2023-03-31T07:36:56.359Z,52.79
2023-03-31T07:39:23.076Z,52.69
2023-03-31T07:41:49.600Z,52.39
2023-03-31T07:44:23.561Z,53.10
2023-03-31T07:46:53.654Z,52.81
2023-03-31T07:49:28.345Z,53.15
2023-03-31T07:52:00.732Z,52.90
2023-03-31T07:54:35.991Z,52.86
2023-03-31T07:57:13.302Z,52.86
2023-03-31T07:59:40.329Z,52.98
2023-03-31T08:02:07.149Z,53.10
2023-03-31T08:04:34.125Z,53.06
2023-03-31T08:07:10.097Z,53.11
2023-03-31T08:09:40.621Z,53.24
2023-03-31T08:12:08.739Z,52.95
2023-03-31T08:14:41.048Z,53.30
2023-03-31T08:17:15.463Z,53.13
2023-03-31T08:19:52.333Z,53.50
2023-03-31T08:22:24.491Z,53.42
2023-03-31T08:27:43.038Z,53.53
2023-03-31T08:47:40.223Z,53.68
2023-03-31T09:48:36.021Z,53.70
2023-03-31T09:54:29.675Z,53.64
2023-03-31T10:05:51.270Z,53.51
2023-03-31T10:11:40.191Z,53.65
2023-03-31T10:14:15.133Z,53.60
2023-03-31T10:41:02.412Z,54.22
2023-03-31T10:43:30.261Z,54.10
2023-03-31T10:46:00.678Z,54.13
2023-03-31T10:48:33.807Z,54.26
2023-03-31T10:51:05.522Z,54.38
2023-03-31T10:53:44.109Z,54.44
2023-03-31T10:56:44.767Z,54.04
2023-03-31T10:59:20.528Z,54.26
2023-03-31T11:05:09.593Z,54.09
2023-03-31T11:07:56.698Z,54.00
2023-03-31T11:10:42.240Z,54.00
2023-03-31T11:13:46.730Z,54.11
2023-03-31T11:16:55.631Z,53.92
2023-03-31T11:19:37.946Z,54.02
2023-03-31T11:22:32.143Z,53.37
2023-03-31T11:28:50.423Z,53.81
2023-03-31T11:35:22.885Z,53.78
2023-03-31T11:38:20.350Z,53.90
2023-03-31T11:41:09.495Z,53.77
2023-03-31T11:43:49.374Z,53.87
2023-03-31T11:46:16.101Z,53.66
2023-03-31T11:48:48.985Z,53.88
2023-03-31T11:51:27.041Z,53.63
2023-03-31T11:53:54.609Z,53.90
2023-03-31T11:56:21.697Z,53.74
2023-03-31T11:58:57.882Z,53.84
2023-03-31T12:01:28.514Z,53.84
2023-03-31T12:04:20.590Z,54.02
2023-03-31T12:06:47.325Z,53.32
2023-03-31T12:09:24.339Z,53.67
2023-03-31T12:11:56.015Z,53.67
2023-03-31T12:14:37.944Z,53.66
2023-03-31T12:17:18.375Z,53.40
2023-03-31T12:19:51.098Z,53.63
2023-03-31T12:22:20.734Z,53.58
2023-03-31T12:24:47.337Z,53.32
2023-03-31T12:27:27.762Z,53.54
2023-03-31T12:29:59.225Z,53.68
2023-03-31T12:32:31.496Z,53.60
2023-03-31T12:35:04.259Z,53.54
2023-03-31T12:38:00.490Z,53.55
2023-03-31T12:41:04.546Z,53.69
2023-03-31T12:43:49.828Z,53.70
2023-03-31T12:46:53.719Z,54.04
2023-03-31T12:49:20.253Z,53.90
2023-03-31T12:52:23.666Z,53.89
2023-03-31T12:55:22.648Z,54.08
2023-03-31T12:57:49.284Z,54.08
2023-03-31T13:00:21.341Z,54.08
2023-03-31T13:02:48.282Z,53.96
2023-03-31T13:05:44.478Z,54.33
2023-03-31T13:08:11.189Z,54.23
2023-03-31T13:10:57.931Z,54.62
2023-03-31T13:13:24.636Z,54.34
2023-03-31T13:15:53.025Z,54.47
2023-03-31T13:18:20.850Z,54.32
2023-03-31T13:20:47.673Z,54.43
2023-03-31T13:23:22.706Z,54.54
2023-03-31T13:25:50.940Z,54.46
2023-03-31T13:28:23.660Z,54.62
2023-03-31T13:30:58.917Z,54.65
2023-03-31T13:33:59.142Z,54.58
2023-03-31T13:36:32.043Z,54.37
2023-03-31T13:39:33.131Z,54.05
2023-03-31T13:42:27.862Z,53.83
2023-03-31T13:45:17.484Z,54.42
2023-03-31T13:47:58.631Z,54.47
2023-03-31T13:50:50.906Z,54.61
2023-03-31T13:53:46.481Z,54.61
2023-03-31T13:56:19.299Z,54.72
2023-03-31T13:59:11.528Z,54.74
2023-03-31T14:02:35.567Z,54.61
2023-03-31T14:05:02.251Z,55.29
2023-03-31T14:07:38.797Z,54.59
2023-03-31T14:10:07.466Z,54.26
2023-03-31T14:12:35.906Z,54.61
2023-03-31T14:15:03.654Z,54.36
2023-03-31T14:17:32.243Z,54.15
2023-03-31T14:20:08.514Z,54.17
2023-03-31T14:23:00.132Z,54.26
2023-03-31T14:25:44.026Z,54.20
2023-03-31T14:28:29.779Z,54.28
2023-03-31T14:31:20.526Z,54.15
2023-03-31T14:33:53.195Z,54.24
2023-03-31T14:36:28.478Z,54.18
2023-03-31T14:38:55.912Z,54.07
2023-03-31T14:41:29.792Z,54.02
2023-03-31T14:43:58.243Z,54.06
2023-03-31T14:46:24.925Z,54.04
2023-03-31T14:48:51.893Z,53.96
2023-03-31T14:51:24.215Z,53.90
2023-03-31T14:54:00.013Z,54.15
2023-03-31T14:56:33.939Z,53.89
2023-03-31T14:59:00.976Z,53.94
2023-03-31T15:01:31.013Z,53.94
2023-03-31T15:03:57.774Z,53.99
2023-03-31T15:06:25.798Z,53.71
2023-03-31T15:08:53.956Z,53.69
2023-03-31T15:11:22.039Z,53.68
2023-03-31T15:14:00.492Z,53.64
2023-03-31T15:16:30.924Z,53.73
2023-03-31T15:18:58.917Z,53.64
2023-03-31T15:21:27.097Z,53.86
2023-03-31T15:23:56.128Z,53.68
2023-03-31T15:26:40.365Z,53.89
2023-03-31T15:29:21.509Z,53.88
2023-03-31T15:31:48.555Z,53.42
2023-03-31T15:34:20.008Z,53.56
2023-03-31T15:36:46.904Z,52.99
2023-03-31T15:39:14.633Z,53.73
2023-03-31T15:41:41.452Z,53.74
2023-03-31T15:44:27.755Z,53.41
2023-03-31T15:47:01.809Z,53.49
2023-03-31T15:49:28.523Z,53.68
2023-03-31T15:51:55.247Z,53.60
2023-03-31T15:54:39.885Z,53.57
2023-03-31T15:57:07.748Z,53.50
2023-03-31T15:59:55.963Z,53.48
2023-03-31T16:02:44.681Z,53.75
2023-03-31T16:05:54.788Z,53.63
2023-03-31T16:08:48.946Z,53.56
2023-03-31T16:11:40.428Z,53.32
2023-03-31T16:14:10.576Z,53.19
2023-03-31T16:16:37.345Z,53.68
2023-03-31T16:19:10.151Z,53.69
2023-03-31T16:21:40.210Z,53.77
2023-03-31T16:24:06.949Z,53.56
2023-03-31T16:26:33.740Z,53.72
2023-03-31T16:29:01.155Z,53.83
2023-03-31T16:31:40.460Z,53.60
2023-03-31T16:34:08.820Z,53.40
2023-03-31T16:36:35.677Z,53.80
2023-03-31T16:39:05.134Z,53.75
2023-03-31T16:41:33.027Z,53.84
2023-03-31T16:43:59.934Z,53.73
2023-03-31T16:46:26.628Z,53.98
2023-03-31T16:48:53.370Z,53.71
2023-03-31T16:51:20.403Z,54.00
2023-03-31T16:53:47.170Z,54.07
2023-03-31T16:56:14.054Z,53.82
2023-03-31T16:58:41.153Z,54.02
2023-03-31T17:01:08.108Z,53.76
2023-03-31T17:03:35.182Z,53.96
2023-03-31T17:06:08.980Z,53.85
2023-03-31T17:08:35.642Z,53.63
2023-03-31T17:11:04.502Z,53.74
2023-03-31T17:19:28.222Z,53.74
2023-03-31T17:22:05.148Z,53.35
2023-03-31T17:27:13.656Z,53.94
2023-03-31T17:29:40.506Z,53.71
2023-03-31T17:32:07.221Z,53.41
2023-03-31T17:37:09.668Z,53.82
2023-03-31T17:39:36.535Z,53.90
2023-03-31T17:42:04.625Z,53.39
2023-03-31T17:44:31.665Z,53.60
2023-03-31T17:47:01.697Z,53.61
2023-03-31T17:49:33.312Z,53.74
2023-03-31T17:52:17.765Z,53.77
2023-03-31T17:54:48.774Z,53.54
2023-03-31T17:57:17.408Z,53.57
2023-03-31T17:59:46.316Z,53.84
2023-03-31T18:02:16.911Z,53.58
2023-03-31T18:04:43.624Z,53.73
2023-03-31T18:07:11.379Z,53.21
2023-03-31T18:09:37.977Z,53.65
2023-03-31T18:12:05.279Z,53.55
2023-03-31T18:14:33.043Z,53.71
2023-03-31T18:16:59.765Z,53.93
2023-03-31T18:19:26.392Z,53.84
2023-03-31T18:21:53.149Z,54.09
2023-03-31T18:24:20.741Z,53.83
2023-03-31T18:26:47.642Z,53.97
2023-03-31T18:29:14.695Z,53.78
2023-03-31T18:31:41.880Z,53.84
2023-03-31T18:34:08.716Z,53.74
2023-03-31T18:36:35.957Z,53.64
2023-03-31T18:39:02.914Z,53.58
2023-03-31T18:41:29.978Z,53.76
2023-03-31T18:43:56.718Z,53.65
2023-03-31T18:49:05.545Z,53.82
2023-03-31T18:51:33.160Z,53.78
2023-03-31T18:53:59.894Z,53.56
2023-03-31T18:56:26.588Z,53.90
2023-03-31T18:58:53.951Z,53.79
2023-03-31T19:01:21.154Z,53.58
2023-03-31T19:03:47.966Z,53.79
2023-03-31T19:06:17.035Z,54.11
2023-03-31T19:08:43.865Z,54.43
2023-03-31T19:11:12.872Z,53.92
2023-03-31T19:13:42.125Z,54.17
2023-03-31T19:16:09.767Z,54.14
2023-03-31T19:18:36.638Z,54.23
2023-03-31T19:21:03.381Z,54.08
2023-03-31T19:23:31.006Z,54.18
2023-03-31T19:25:57.901Z,54.19
2023-03-31T19:28:24.877Z,54.14
2023-03-31T19:30:52.499Z,54.34
2023-03-31T19:33:20.995Z,54.38
2023-03-31T19:35:47.884Z,54.30
2023-03-31T19:38:14.932Z,54.16
2023-03-31T19:40:41.825Z,54.18
2023-03-31T19:43:19.351Z,54.38
2023-03-31T19:45:46.649Z,54.26
2023-03-31T19:48:16.608Z,54.11
2023-03-31T19:50:51.267Z,54.18
2023-03-31T19:53:18.575Z,54.26
2023-03-31T19:55:45.271Z,54.25
2023-03-31T19:58:16.193Z,54.01
2023-03-31T20:00:43.020Z,54.10
2023-03-31T20:03:10.688Z,53.93
2023-03-31T20:05:37.846Z,53.93
2023-03-31T20:08:04.612Z,54.15
2023-03-31T20:10:31.613Z,53.88
2023-03-31T20:12:58.355Z,53.80
2023-03-31T20:15:25.057Z,54.09
2023-03-31T20:17:52.274Z,54.02
2023-03-31T20:20:19.140Z,53.90
2023-03-31T20:22:45.902Z,54.02
2023-03-31T20:25:13.362Z,53.84
2023-03-31T20:27:42.145Z,54.04
2023-03-31T20:30:10.163Z,54.18
2023-03-31T20:32:38.783Z,53.94
2023-03-31T20:35:07.198Z,53.92
2023-03-31T20:37:36.484Z,54.26
2023-03-31T20:40:07.179Z,54.05
2023-03-31T20:42:33.965Z,54.27
2023-03-31T20:45:03.409Z,54.13
2023-03-31T20:47:30.640Z,54.30
2023-03-31T20:49:57.477Z,54.30
2023-03-31T20:52:24.324Z,54.42
2023-03-31T20:54:51.358Z,54.28
2023-03-31T20:57:20.636Z,54.56
2023-03-31T20:59:47.376Z,54.18
2023-03-31T21:02:14.546Z,54.30
2023-03-31T21:04:41.292Z,54.36
2023-03-31T21:07:08.111Z,54.14
2023-03-31T21:09:35.124Z,54.11
2023-03-31T21:12:02.767Z,54.17
2023-03-31T21:14:30.134Z,54.11
2023-03-31T21:16:56.941Z,54.28
2023-03-31T21:19:26.544Z,53.88
2023-03-31T21:21:53.374Z,54.05
2023-03-31T21:24:20.138Z,53.92
2023-03-31T21:26:46.886Z,54.28
2023-03-31T21:29:13.722Z,54.18
2023-03-31T21:31:41.862Z,54.16
2023-03-31T21:34:08.970Z,53.94
2023-03-31T21:36:35.738Z,53.97
2023-03-31T21:39:02.470Z,53.94
2023-03-31T21:41:30.341Z,54.19
2023-03-31T21:44:00.596Z,54.27
2023-03-31T21:46:29.099Z,54.42
2023-03-31T21:48:56.579Z,54.49
2023-03-31T21:51:23.488Z,54.39
2023-03-31T21:53:53.148Z,54.23
2023-03-31T21:56:19.893Z,54.52
2023-03-31T21:58:46.780Z,54.71
2023-03-31T22:01:13.828Z,54.49
2023-03-31T22:03:42.809Z,54.64
2023-03-31T22:06:09.654Z,54.56
2023-03-31T22:08:39.222Z,54.40
2023-03-31T22:11:07.016Z,54.27
2023-03-31T22:13:33.884Z,54.60
2023-03-31T22:16:02.016Z,54.47
2023-03-31T22:18:29.588Z,54.60
2023-03-31T22:20:58.742Z,54.45
2023-03-31T22:23:26.204Z,54.14
2023-03-31T22:25:52.916Z,54.46
2023-03-31T22:28:19.613Z,54.24
2023-03-31T22:30:55.047Z,54.39
2023-03-31T22:33:21.984Z,53.99
2023-03-31T22:35:50.544Z,54.64
2023-03-31T22:38:17.437Z,54.18
2023-03-31T22:40:44.104Z,54.27
2023-03-31T22:43:10.838Z,54.07
2023-03-31T22:45:40.379Z,54.05
2023-03-31T22:48:08.656Z,53.84
2023-03-31T22:50:35.625Z,54.10
2023-03-31T22:53:02.424Z,54.04
2023-03-31T22:55:29.793Z,54.27
2023-03-31T22:57:57.109Z,54.17
2023-03-31T23:00:23.758Z,54.25
2023-03-31T23:02:50.824Z,54.34
2023-03-31T23:05:17.474Z,54.41
2023-03-31T23:07:44.843Z,54.53
2023-03-31T23:10:11.590Z,54.24
2023-03-31T23:12:38.272Z,54.22
2023-03-31T23:15:05.429Z,54.24
2023-03-31T23:17:32.185Z,54.31
2023-03-31T23:19:58.908Z,54.26
2023-03-31T23:22:26.021Z,54.22
2023-03-31T23:24:52.709Z,54.20
2023-03-31T23:27:19.690Z,54.18
2023-03-31T23:29:46.709Z,54.15
2023-03-31T23:32:14.024Z,54.33
2023-03-31T23:34:42.020Z,54.23
2023-03-31T23:37:09.958Z,54.11
2023-03-31T23:39:38.799Z,54.14
2023-03-31T23:42:06.742Z,54.08
2023-03-31T23:44:33.532Z,54.08
2023-03-31T23:47:00.202Z,54.04
2023-03-31T23:49:27.226Z,54.40
2023-03-31T23:51:53.894Z,54.56
2023-03-31T23:54:21.072Z,54.08
2023-03-31T23:56:47.792Z,54.27
2023-03-31T23:59:14.722Z,54.03
